Darstellungsparameter: Aktuell verwendete Einstellungen:
Skalierung der Graphiken ... ?
xyx+y,   Skalierungsfaktor:      Skalierung: Modus: x, Faktor: 1
Darstellungszeitraum ... ?
Vom - - bis: - -   Zeitraum: 11.04.2021 - 11.04.2021
Min/Max/Avg-Anzeige ... ?
Zeige MMA aktuell
Zeige MMA Monat
Zeige MMA alles
Zeige --A aktuell
Zeige --A Monat
Zeige --A alles
Keine MMA-Anzeige
MMA:
Keine MMA-Graphiken
MMA-Basis: 11.04.2021 - 11.04.2021
Quicknavigation für Darstellung... ?
Tage:      1T, 2T, 3T, 5T -1T -2T -3T -5T +1T +2T +3T +5T
Wochen: 1W, 2W, 3W -1W -2W -3W +1W +2W +3W
Monate: 1M, 3M, 6M -1M -3M -6M +1M +3M +6M
Jahre:    1J, 3J, 5J, 10J -1J -3J -5J -10J +1J +3J +5J +10J
Nutze für die Darstellung ... ?
Originaldaten oder Mittelwerte auf ...
Stundenbasis Tagesbasis Wochenbasis
Monatsbasis Jahresbasis      Datenbasis: Original-Daten
Darstellen als:
Statistik (Auto) Statistik J:M      Darstellung:

Der gewünschte Datumsbereich war nicht gültig/verfügbar und wurde korrigiert....
Das angegebene Enddatum (05.09.2022 23:59:59) liegt in der Zukunft.
Das angegebene Startdatum (06.03.2022 00:00:00) liegt in der Zukunft.


Zur Graphik,    zurück zur Übersicht aller Sensoren.
 
Tabellarische Datenbersicht: ?
 
Sensor: Nr:Datum:Temp:Feuchte:Taupunkt:
Aussen-T/F 1 11-04-2021 02:00:00 8.9 C 96 % 8.3 C
2 11-04-2021 02:05:00 8.9 C 96 % 8.3 C
3 11-04-2021 02:10:00 8.9 C 96 % 8.3 C
4 11-04-2021 02:15:00 8.9 C 96 % 8.3 C
5 11-04-2021 02:20:00 8.9 C 96 % 8.3 C
6 11-04-2021 02:25:00 9 C 96 % 8.4 C
7 11-04-2021 02:30:00 9 C 97 % 8.55 C
8 11-04-2021 02:35:00 9.1 C 97 % 8.65 C
9 11-04-2021 02:40:00 9.1 C 97 % 8.65 C
10 11-04-2021 02:45:00 9.2 C 97 % 8.75 C
11 11-04-2021 02:50:00 9.3 C 97 % 8.85 C
12 11-04-2021 02:55:00 9.2 C 97 % 8.75 C
13 11-04-2021 03:00:00 9.3 C 97 % 8.85 C
14 11-04-2021 03:05:00 9.3 C 97 % 8.85 C
15 11-04-2021 03:10:00 9.3 C 97 % 8.85 C
16 11-04-2021 03:15:00 9.2 C 97 % 8.75 C
17 11-04-2021 03:20:00 9.2 C 97 % 8.75 C
18 11-04-2021 03:25:00 9.1 C 97 % 8.65 C
19 11-04-2021 03:30:00 9.1 C 97 % 8.65 C
20 11-04-2021 03:35:00 9.1 C 97 % 8.65 C
21 11-04-2021 03:40:00 9.1 C 97 % 8.65 C
22 11-04-2021 03:45:00 9.1 C 97 % 8.65 C
23 11-04-2021 03:50:00 9 C 97 % 8.55 C
24 11-04-2021 03:55:00 9 C 97 % 8.55 C
25 11-04-2021 04:00:00 9 C 97 % 8.55 C
Sensor: Nr:Datum:Temp:Feuchte:Taupunkt:
Aussen-T/F 26 11-04-2021 04:05:00 9 C 97 % 8.55 C
27 11-04-2021 04:10:00 8.9 C 97 % 8.45 C
28 11-04-2021 04:15:00 8.8 C 96 % 8.2 C
29 11-04-2021 04:20:00 8.8 C 97 % 8.35 C
30 11-04-2021 04:25:00 8.8 C 97 % 8.35 C
31 11-04-2021 04:30:00 8.8 C 97 % 8.35 C
32 11-04-2021 04:35:00 8.8 C 97 % 8.35 C
33 11-04-2021 04:40:00 8.8 C 97 % 8.35 C
34 11-04-2021 04:45:00 8.8 C 97 % 8.35 C
35 11-04-2021 04:50:00 8.8 C 97 % 8.35 C
36 11-04-2021 04:55:00 8.8 C 97 % 8.35 C
37 11-04-2021 05:00:00 8.7 C 97 % 8.25 C
38 11-04-2021 05:05:00 8.7 C 97 % 8.25 C
39 11-04-2021 05:10:00 8.7 C 97 % 8.25 C
40 11-04-2021 05:15:00 8.7 C 97 % 8.25 C
41 11-04-2021 05:20:00 8.7 C 97 % 8.25 C
42 11-04-2021 05:25:00 8.8 C 97 % 8.35 C
43 11-04-2021 05:30:00 8.8 C 97 % 8.35 C
44 11-04-2021 05:35:00 8.8 C 97 % 8.35 C
45 11-04-2021 05:40:00 8.9 C 97 % 8.45 C
46 11-04-2021 05:45:00 8.9 C 97 % 8.45 C
47 11-04-2021 05:50:00 8.9 C 97 % 8.45 C
48 11-04-2021 05:55:00 9 C 97 % 8.55 C
49 11-04-2021 06:00:00 9 C 97 % 8.55 C
50 11-04-2021 06:05:00 9 C 97 % 8.55 C
Sensor: Nr:Datum:Temp:Feuchte:Taupunkt:
Aussen-T/F 51 11-04-2021 06:10:00 9 C 97 % 8.55 C
52 11-04-2021 06:15:00 9.1 C 97 % 8.65 C
53 11-04-2021 06:20:00 9.1 C 97 % 8.65 C
54 11-04-2021 06:25:00 9.1 C 97 % 8.65 C
55 11-04-2021 06:30:00 9.1 C 97 % 8.65 C
56 11-04-2021 06:35:00 9.1 C 97 % 8.65 C
57 11-04-2021 06:40:00 9.1 C 97 % 8.65 C
58 11-04-2021 06:45:00 9.1 C 97 % 8.65 C
59 11-04-2021 06:50:00 9.1 C 97 % 8.65 C
60 11-04-2021 06:55:00 9.1 C 97 % 8.65 C
61 11-04-2021 07:00:00 9.1 C 97 % 8.65 C
62 11-04-2021 07:05:00 9.1 C 97 % 8.65 C
63 11-04-2021 07:10:00 9.2 C 97 % 8.75 C
64 11-04-2021 07:15:00 9.2 C 97 % 8.75 C
65 11-04-2021 07:20:00 9.2 C 97 % 8.75 C
66 11-04-2021 07:25:00 9.2 C 97 % 8.75 C
67 11-04-2021 07:30:00 9.2 C 97 % 8.75 C
68 11-04-2021 07:35:00 9.3 C 97 % 8.85 C
69 11-04-2021 07:40:00 9.3 C 97 % 8.85 C
70 11-04-2021 07:45:00 9.3 C 97 % 8.85 C
71 11-04-2021 07:50:00 9.3 C 97 % 8.85 C
72 11-04-2021 07:55:00 9.3 C 97 % 8.85 C
73 11-04-2021 08:00:00 9.4 C 97 % 8.95 C
74 11-04-2021 08:05:00 9.4 C 97 % 8.95 C
75 11-04-2021 08:10:00 9.4 C 97 % 8.95 C
Sensor: Nr:Datum:Temp:Feuchte:Taupunkt:
Aussen-T/F 76 11-04-2021 08:15:00 9.4 C 97 % 8.95 C
77 11-04-2021 08:20:00 9.6 C 97 % 9.15 C
78 11-04-2021 08:25:00 9.6 C 97 % 9.15 C
79 11-04-2021 08:30:00 9.7 C 97 % 9.25 C
80 11-04-2021 08:35:00 9.7 C 97 % 9.25 C
81 11-04-2021 08:40:00 9.8 C 97 % 9.35 C
82 11-04-2021 08:45:00 10 C 98 % 9.7 C
83 11-04-2021 08:50:00 10.2 C 97 % 9.75 C
84 11-04-2021 08:55:00 10.4 C 98 % 10.1 C
85 11-04-2021 09:00:00 10.5 C 98 % 10.2 C
86 11-04-2021 09:05:00 10.5 C 98 % 10.2 C
87 11-04-2021 09:10:00 10.5 C 98 % 10.2 C
88 11-04-2021 09:15:00 10.7 C 98 % 10.4 C
89 11-04-2021 09:20:00 10.7 C 97 % 10.24 C
90 11-04-2021 09:25:00 10.7 C 97 % 10.24 C
91 11-04-2021 09:30:00 10.1 C 97 % 9.65 C
92 11-04-2021 09:35:00 9.3 C 96 % 8.7 C
93 11-04-2021 09:40:00 8.7 C 95 % 7.94 C
94 11-04-2021 09:45:00 8.4 C 96 % 7.8 C
95 11-04-2021 09:50:00 8.2 C 96 % 7.6 C
96 11-04-2021 09:55:00 8.1 C 96 % 7.5 C
97 11-04-2021 10:00:00 7.8 C 96 % 7.2 C
98 11-04-2021 10:05:00 7.6 C 96 % 7 C
99 11-04-2021 10:10:00 7.5 C 96 % 6.9 C
100 11-04-2021 10:15:00 7.4 C 96 % 6.8 C
Sensor: Nr:Datum:Temp:Feuchte:Taupunkt:
Aussen-T/F 101 11-04-2021 10:20:00 7.3 C 96 % 6.71 C
102 11-04-2021 10:25:00 7.1 C 96 % 6.51 C
103 11-04-2021 10:30:00 6.9 C 96 % 6.31 C
104 11-04-2021 10:35:00 6.8 C 96 % 6.21 C
105 11-04-2021 10:40:00 6.6 C 95 % 5.86 C
106 11-04-2021 10:45:00 6.4 C 96 % 5.81 C
107 11-04-2021 10:50:00 6.3 C 96 % 5.71 C
108 11-04-2021 10:55:00 6.3 C 96 % 5.71 C
109 11-04-2021 11:00:00 6.3 C 96 % 5.71 C
110 11-04-2021 11:05:00 6.2 C 96 % 5.61 C
111 11-04-2021 11:10:00 5.9 C 95 % 5.16 C
112 11-04-2021 11:15:00 5.8 C 95 % 5.06 C
113 11-04-2021 11:20:00 5.8 C 96 % 5.21 C
114 11-04-2021 11:25:00 5.7 C 96 % 5.11 C
115 11-04-2021 11:30:00 5.7 C 96 % 5.11 C
116 11-04-2021 11:35:00 5.7 C 96 % 5.11 C
117 11-04-2021 11:40:00 5.7 C 96 % 5.11 C
118 11-04-2021 11:45:00 5.6 C 95 % 4.86 C
119 11-04-2021 11:50:00 5.6 C 95 % 4.86 C
120 11-04-2021 11:55:00 5.6 C 95 % 4.86 C
121 11-04-2021 12:00:00 5.5 C 95 % 4.76 C
122 11-04-2021 12:05:00 5.4 C 95 % 4.66 C
123 11-04-2021 12:10:00 5.3 C 95 % 4.57 C
124 11-04-2021 12:15:00 5.3 C 95 % 4.57 C
125 11-04-2021 12:20:00 5.3 C 95 % 4.57 C
Sensor: Nr:Datum:Temp:Feuchte:Taupunkt:
Aussen-T/F 126 11-04-2021 12:25:00 5.3 C 95 % 4.57 C
127 11-04-2021 12:30:00 5.3 C 95 % 4.57 C
128 11-04-2021 12:35:00 5.3 C 95 % 4.57 C
129 11-04-2021 12:40:00 5.3 C 95 % 4.57 C
130 11-04-2021 12:45:00 5.3 C 95 % 4.57 C
131 11-04-2021 12:50:00 5.3 C 95 % 4.57 C

Legende:
   Min
   Max


Maximal/Minimal-Werte vom 11.04.2021 - 11.04.2021

Sensor Min Max Avg
Temp
(Aussen-T/F)
5.3 °C
11-04-2021  12:10:00
10.7 °C
11-04-2021  09:15:00
8.36 °C
Feuchte
(Aussen-T/F)
95 %
11-04-2021  09:40:00
98 %
11-04-2021  08:45:00
96.55 %
Taupunkt
(Aussen-T/F)
4.57 C
11-04-2021  12:10:00
10.4 C
11-04-2021  09:15:00
7.78 C

Die Daten stammen von einer Davis Vantage Pro 2 Wetter-Station und werden unter Linux mit der Software wview2wettercgi und aufbereitet. Alle Angaben erfolgen ohne Gewähr für ihre Vollständigkeit oder Richtigkeit.
Kontakt: Rainer Krienke krienke@uni-koblenz.de . Meine Webseiten an der Uni Koblenz oder privat.
Version: $Revision: 0.78 $